sensor_id;sensor_type;location;lat;lon;timestamp;temperature;humidity
25923;DHT22;13725;51.170;4.442;2022-09-02T00:01:43;18.70;99.90
25923;DHT22;13725;51.170;4.442;2022-09-02T00:04:13;18.60;99.90
25923;DHT22;13725;51.170;4.442;2022-09-02T00:06:40;18.60;99.90
25923;DHT22;13725;51.170;4.442;2022-09-02T00:09:08;18.60;99.90
25923;DHT22;13725;51.170;4.442;2022-09-02T00:11:35;18.50;99.90
25923;DHT22;13725;51.170;4.442;2022-09-02T00:14:05;18.50;99.90
25923;DHT22;13725;51.170;4.442;2022-09-02T00:16:31;18.50;99.90
25923;DHT22;13725;51.170;4.442;2022-09-02T00:18:58;18.40;99.90
25923;DHT22;13725;51.170;4.442;2022-09-02T00:21:24;18.40;99.90
25923;DHT22;13725;51.170;4.442;2022-09-02T00:23:52;18.40;99.90
25923;DHT22;13725;51.170;4.442;2022-09-02T00:26:18;18.40;99.90
25923;DHT22;13725;51.170;4.442;2022-09-02T00:28:44;18.30;99.90
25923;DHT22;13725;51.170;4.442;2022-09-02T00:31:12;18.30;99.90
25923;DHT22;13725;51.170;4.442;2022-09-02T00:33:39;18.30;99.90
25923;DHT22;13725;51.170;4.442;2022-09-02T00:36:05;18.20;99.90
25923;DHT22;13725;51.170;4.442;2022-09-02T00:38:32;18.20;99.90
25923;DHT22;13725;51.170;4.442;2022-09-02T00:41:01;18.20;99.90
25923;DHT22;13725;51.170;4.442;2022-09-02T00:43:47;18.10;99.90
25923;DHT22;13725;51.170;4.442;2022-09-02T00:46:16;18.00;99.90
25923;DHT22;13725;51.170;4.442;2022-09-02T00:49:22;18.00;99.90
25923;DHT22;13725;51.170;4.442;2022-09-02T00:52:12;17.90;99.90
25923;DHT22;13725;51.170;4.442;2022-09-02T00:54:46;17.90;99.90
25923;DHT22;13725;51.170;4.442;2022-09-02T00:57:15;17.90;99.90
25923;DHT22;13725;51.170;4.442;2022-09-02T01:00:14;17.90;99.90
25923;DHT22;13725;51.170;4.442;2022-09-02T01:02:45;17.90;99.90
25923;DHT22;13725;51.170;4.442;2022-09-02T01:05:14;17.90;99.90
25923;DHT22;13725;51.170;4.442;2022-09-02T01:07:40;17.80;99.90
25923;DHT22;13725;51.170;4.442;2022-09-02T01:10:18;17.80;99.90
25923;DHT22;13725;51.170;4.442;2022-09-02T01:12:45;17.80;99.90
25923;DHT22;13725;51.170;4.442;2022-09-02T01:15:12;17.70;99.90
25923;DHT22;13725;51.170;4.442;2022-09-02T01:17:45;17.70;99.90
25923;DHT22;13725;51.170;4.442;2022-09-02T01:20:15;17.70;99.90
25923;DHT22;13725;51.170;4.442;2022-09-02T01:22:42;17.70;99.90
25923;DHT22;13725;51.170;4.442;2022-09-02T01:25:22;17.60;99.90
25923;DHT22;13725;51.170;4.442;2022-09-02T01:27:49;17.60;99.90
25923;DHT22;13725;51.170;4.442;2022-09-02T01:30:24;17.60;99.90
25923;DHT22;13725;51.170;4.442;2022-09-02T01:32:50;17.50;99.90
25923;DHT22;13725;51.170;4.442;2022-09-02T01:35:17;17.50;99.90
25923;DHT22;13725;51.170;4.442;2022-09-02T01:37:44;17.50;99.90
25923;DHT22;13725;51.170;4.442;2022-09-02T01:40:14;17.50;99.90
25923;DHT22;13725;51.170;4.442;2022-09-02T01:42:40;17.40;99.90
25923;DHT22;13725;51.170;4.442;2022-09-02T01:45:07;17.40;99.90
25923;DHT22;13725;51.170;4.442;2022-09-02T01:47:34;17.40;99.90
25923;DHT22;13725;51.170;4.442;2022-09-02T01:50:01;17.40;99.90
25923;DHT22;13725;51.170;4.442;2022-09-02T01:52:28;17.40;99.90
25923;DHT22;13725;51.170;4.442;2022-09-02T01:54:55;17.30;99.90
25923;DHT22;13725;51.170;4.442;2022-09-02T01:57:21;17.30;99.90
25923;DHT22;13725;51.170;4.442;2022-09-02T01:59:50;17.30;99.90
25923;DHT22;13725;51.170;4.442;2022-09-02T02:02:17;17.30;99.90
25923;DHT22;13725;51.170;4.442;2022-09-02T02:04:43;17.30;99.90
25923;DHT22;13725;51.170;4.442;2022-09-02T02:07:17;17.20;99.90
25923;DHT22;13725;51.170;4.442;2022-09-02T02:09:43;17.30;99.90
25923;DHT22;13725;51.170;4.442;2022-09-02T02:12:14;17.20;99.90
25923;DHT22;13725;51.170;4.442;2022-09-02T02:14:40;17.20;99.90
25923;DHT22;13725;51.170;4.442;2022-09-02T02:17:06;17.20;99.90
25923;DHT22;13725;51.170;4.442;2022-09-02T02:19:33;17.20;99.90
25923;DHT22;13725;51.170;4.442;2022-09-02T02:21:59;17.10;99.90
25923;DHT22;13725;51.170;4.442;2022-09-02T02:24:25;17.10;99.90
25923;DHT22;13725;51.170;4.442;2022-09-02T02:26:51;17.10;99.90
25923;DHT22;13725;51.170;4.442;2022-09-02T02:29:19;17.00;99.90
25923;DHT22;13725;51.170;4.442;2022-09-02T02:31:46;17.10;99.90
25923;DHT22;13725;51.170;4.442;2022-09-02T02:34:12;17.00;99.90
25923;DHT22;13725;51.170;4.442;2022-09-02T02:36:39;17.00;99.90
25923;DHT22;13725;51.170;4.442;2022-09-02T02:39:07;16.90;99.90
25923;DHT22;13725;51.170;4.442;2022-09-02T02:41:35;16.90;99.90
25923;DHT22;13725;51.170;4.442;2022-09-02T02:44:02;16.80;99.90
25923;DHT22;13725;51.170;4.442;2022-09-02T02:46:28;16.90;99.90
25923;DHT22;13725;51.170;4.442;2022-09-02T02:49:00;16.90;99.90
25923;DHT22;13725;51.170;4.442;2022-09-02T02:51:26;16.80;99.90
25923;DHT22;13725;51.170;4.442;2022-09-02T02:53:52;16.80;99.90
25923;DHT22;13725;51.170;4.442;2022-09-02T02:56:18;16.80;99.90
25923;DHT22;13725;51.170;4.442;2022-09-02T02:58:44;16.80;99.90
25923;DHT22;13725;51.170;4.442;2022-09-02T03:01:10;16.80;99.90
25923;DHT22;13725;51.170;4.442;2022-09-02T03:03:36;16.70;99.90
25923;DHT22;13725;51.170;4.442;2022-09-02T03:06:03;16.80;99.90
25923;DHT22;13725;51.170;4.442;2022-09-02T03:08:29;16.80;99.90
25923;DHT22;13725;51.170;4.442;2022-09-02T03:10:55;16.80;99.90
25923;DHT22;13725;51.170;4.442;2022-09-02T03:13:25;16.80;99.90
25923;DHT22;13725;51.170;4.442;2022-09-02T03:15:52;16.70;99.90
25923;DHT22;13725;51.170;4.442;2022-09-02T03:18:20;16.80;99.90
25923;DHT22;13725;51.170;4.442;2022-09-02T03:20:48;16.80;99.90
25923;DHT22;13725;51.170;4.442;2022-09-02T03:23:14;16.70;99.90
25923;DHT22;13725;51.170;4.442;2022-09-02T03:25:44;16.70;99.90
25923;DHT22;13725;51.170;4.442;2022-09-02T03:28:25;16.70;99.90
25923;DHT22;13725;51.170;4.442;2022-09-02T03:30:51;16.70;99.90
25923;DHT22;13725;51.170;4.442;2022-09-02T03:33:17;16.60;99.90
25923;DHT22;13725;51.170;4.442;2022-09-02T03:35:44;16.60;99.90
25923;DHT22;13725;51.170;4.442;2022-09-02T03:38:11;16.60;99.90
25923;DHT22;13725;51.170;4.442;2022-09-02T03:40:38;16.60;99.90
25923;DHT22;13725;51.170;4.442;2022-09-02T03:43:04;16.60;99.90
25923;DHT22;13725;51.170;4.442;2022-09-02T03:45:30;16.50;99.90
25923;DHT22;13725;51.170;4.442;2022-09-02T03:47:59;16.50;99.90
25923;DHT22;13725;51.170;4.442;2022-09-02T03:50:32;16.50;99.90
25923;DHT22;13725;51.170;4.442;2022-09-02T03:52:59;16.50;99.90
25923;DHT22;13725;51.170;4.442;2022-09-02T03:55:26;16.60;99.90
25923;DHT22;13725;51.170;4.442;2022-09-02T03:57:53;16.60;99.90
25923;DHT22;13725;51.170;4.442;2022-09-02T04:00:23;16.60;99.90
25923;DHT22;13725;51.170;4.442;2022-09-02T04:02:51;16.70;99.90
25923;DHT22;13725;51.170;4.442;2022-09-02T04:05:18;16.70;99.90
25923;DHT22;13725;51.170;4.442;2022-09-02T04:07:45;16.70;99.90
25923;DHT22;13725;51.170;4.442;2022-09-02T04:10:12;16.70;99.90
25923;DHT22;13725;51.170;4.442;2022-09-02T04:12:38;16.70;99.90
25923;DHT22;13725;51.170;4.442;2022-09-02T04:15:06;16.80;99.90
25923;DHT22;13725;51.170;4.442;2022-09-02T04:17:37;16.80;99.90
25923;DHT22;13725;51.170;4.442;2022-09-02T04:20:08;16.80;99.90
25923;DHT22;13725;51.170;4.442;2022-09-02T04:22:34;16.80;99.90
25923;DHT22;13725;51.170;4.442;2022-09-02T04:25:01;16.90;99.90
25923;DHT22;13725;51.170;4.442;2022-09-02T04:27:27;17.00;99.90
25923;DHT22;13725;51.170;4.442;2022-09-02T04:29:54;17.00;99.90
25923;DHT22;13725;51.170;4.442;2022-09-02T04:32:21;17.00;99.90
25923;DHT22;13725;51.170;4.442;2022-09-02T04:34:49;17.00;99.90
25923;DHT22;13725;51.170;4.442;2022-09-02T04:37:16;17.00;99.90
25923;DHT22;13725;51.170;4.442;2022-09-02T04:39:42;16.90;99.90
25923;DHT22;13725;51.170;4.442;2022-09-02T04:42:09;17.00;99.90
25923;DHT22;13725;51.170;4.442;2022-09-02T04:44:35;17.00;99.90
25923;DHT22;13725;51.170;4.442;2022-09-02T04:47:01;17.00;99.90
25923;DHT22;13725;51.170;4.442;2022-09-02T04:49:28;17.00;99.90
25923;DHT22;13725;51.170;4.442;2022-09-02T04:51:58;17.10;99.90
25923;DHT22;13725;51.170;4.442;2022-09-02T04:54:25;17.10;99.90
25923;DHT22;13725;51.170;4.442;2022-09-02T04:56:53;17.10;99.90
25923;DHT22;13725;51.170;4.442;2022-09-02T04:59:21;17.10;99.90
25923;DHT22;13725;51.170;4.442;2022-09-02T05:02:00;17.20;99.90
25923;DHT22;13725;51.170;4.442;2022-09-02T05:04:28;17.10;99.90
25923;DHT22;13725;51.170;4.442;2022-09-02T05:06:57;17.20;99.90
25923;DHT22;13725;51.170;4.442;2022-09-02T05:09:28;17.20;99.90
25923;DHT22;13725;51.170;4.442;2022-09-02T05:11:57;17.20;99.90
25923;DHT22;13725;51.170;4.442;2022-09-02T05:14:37;17.10;99.90
25923;DHT22;13725;51.170;4.442;2022-09-02T05:17:05;17.20;99.90
25923;DHT22;13725;51.170;4.442;2022-09-02T05:19:31;17.20;99.90
25923;DHT22;13725;51.170;4.442;2022-09-02T05:21:59;17.20;99.90
25923;DHT22;13725;51.170;4.442;2022-09-02T05:24:30;17.30;99.90
25923;DHT22;13725;51.170;4.442;2022-09-02T05:27:00;17.30;99.90
25923;DHT22;13725;51.170;4.442;2022-09-02T05:29:28;17.30;99.90
25923;DHT22;13725;51.170;4.442;2022-09-02T05:31:55;17.30;99.90
25923;DHT22;13725;51.170;4.442;2022-09-02T05:34:23;17.30;99.90
25923;DHT22;13725;51.170;4.442;2022-09-02T05:36:51;17.30;99.90
25923;DHT22;13725;51.170;4.442;2022-09-02T05:39:17;17.40;99.90
25923;DHT22;13725;51.170;4.442;2022-09-02T05:41:43;17.50;99.90
25923;DHT22;13725;51.170;4.442;2022-09-02T05:44:11;17.50;99.90
25923;DHT22;13725;51.170;4.442;2022-09-02T05:46:37;17.50;99.90
25923;DHT22;13725;51.170;4.442;2022-09-02T05:49:04;17.60;99.90
25923;DHT22;13725;51.170;4.442;2022-09-02T05:51:53;17.60;99.90
25923;DHT22;13725;51.170;4.442;2022-09-02T05:54:29;17.70;99.90
25923;DHT22;13725;51.170;4.442;2022-09-02T05:57:00;17.70;99.90
25923;DHT22;13725;51.170;4.442;2022-09-02T05:59:28;17.90;99.90
25923;DHT22;13725;51.170;4.442;2022-09-02T06:01:57;18.00;99.90
25923;DHT22;13725;51.170;4.442;2022-09-02T06:04:24;18.10;99.90
25923;DHT22;13725;51.170;4.442;2022-09-02T06:06:51;18.30;99.90
25923;DHT22;13725;51.170;4.442;2022-09-02T06:09:20;18.30;99.90
25923;DHT22;13725;51.170;4.442;2022-09-02T06:11:48;18.40;99.90
25923;DHT22;13725;51.170;4.442;2022-09-02T06:14:21;18.40;99.90
25923;DHT22;13725;51.170;4.442;2022-09-02T06:16:50;18.40;99.90
25923;DHT22;13725;51.170;4.442;2022-09-02T06:19:26;18.50;99.90
25923;DHT22;13725;51.170;4.442;2022-09-02T06:21:54;18.50;99.90
25923;DHT22;13725;51.170;4.442;2022-09-02T06:24:24;18.70;99.90
25923;DHT22;13725;51.170;4.442;2022-09-02T06:26:50;18.80;99.90
25923;DHT22;13725;51.170;4.442;2022-09-02T06:29:18;18.90;99.90
25923;DHT22;13725;51.170;4.442;2022-09-02T06:31:47;18.90;99.90
25923;DHT22;13725;51.170;4.442;2022-09-02T06:34:17;18.90;99.90
25923;DHT22;13725;51.170;4.442;2022-09-02T06:36:45;18.90;99.90
25923;DHT22;13725;51.170;4.442;2022-09-02T06:39:15;19.00;99.90
25923;DHT22;13725;51.170;4.442;2022-09-02T06:41:43;19.10;99.90
25923;DHT22;13725;51.170;4.442;2022-09-02T06:44:12;19.30;99.90
25923;DHT22;13725;51.170;4.442;2022-09-02T06:46:42;19.50;99.90
25923;DHT22;13725;51.170;4.442;2022-09-02T06:49:11;19.90;99.90
25923;DHT22;13725;51.170;4.442;2022-09-02T06:51:41;20.80;99.90
25923;DHT22;13725;51.170;4.442;2022-09-02T06:54:10;22.10;99.90
25923;DHT22;13725;51.170;4.442;2022-09-02T06:56:37;23.20;99.90
25923;DHT22;13725;51.170;4.442;2022-09-02T06:59:05;24.10;99.90
25923;DHT22;13725;51.170;4.442;2022-09-02T07:01:42;24.70;99.90
25923;DHT22;13725;51.170;4.442;2022-09-02T07:04:09;25.80;99.90
25923;DHT22;13725;51.170;4.442;2022-09-02T07:06:55;26.60;98.90
25923;DHT22;13725;51.170;4.442;2022-09-02T07:09:26;27.20;97.20
25923;DHT22;13725;51.170;4.442;2022-09-02T07:11:59;27.20;95.40
25923;DHT22;13725;51.170;4.442;2022-09-02T07:14:26;27.00;94.60
25923;DHT22;13725;51.170;4.442;2022-09-02T07:16:56;27.50;94.30
25923;DHT22;13725;51.170;4.442;2022-09-02T07:19:27;27.40;93.30
25923;DHT22;13725;51.170;4.442;2022-09-02T07:21:53;28.10;93.00
25923;DHT22;13725;51.170;4.442;2022-09-02T07:24:21;29.10;91.20
25923;DHT22;13725;51.170;4.442;2022-09-02T07:26:48;29.90;89.90
25923;DHT22;13725;51.170;4.442;2022-09-02T07:29:16;29.70;87.80
25923;DHT22;13725;51.170;4.442;2022-09-02T07:31:46;29.80;87.80
25923;DHT22;13725;51.170;4.442;2022-09-02T07:34:16;30.30;86.60
25923;DHT22;13725;51.170;4.442;2022-09-02T07:36:43;30.80;84.80
25923;DHT22;13725;51.170;4.442;2022-09-02T07:39:17;30.70;83.30
25923;DHT22;13725;51.170;4.442;2022-09-02T07:41:46;31.40;82.00
25923;DHT22;13725;51.170;4.442;2022-09-02T07:44:13;31.90;81.10
25923;DHT22;13725;51.170;4.442;2022-09-02T07:46:41;32.00;79.00
25923;DHT22;13725;51.170;4.442;2022-09-02T07:49:09;33.00;77.50
25923;DHT22;13725;51.170;4.442;2022-09-02T07:51:38;33.50;75.30
25923;DHT22;13725;51.170;4.442;2022-09-02T07:54:05;33.00;74.60
25923;DHT22;13725;51.170;4.442;2022-09-02T07:56:32;33.40;74.10
25923;DHT22;13725;51.170;4.442;2022-09-02T07:58:58;34.10;73.20
25923;DHT22;13725;51.170;4.442;2022-09-02T08:01:24;33.90;72.40
25923;DHT22;13725;51.170;4.442;2022-09-02T08:03:52;33.60;71.60
25923;DHT22;13725;51.170;4.442;2022-09-02T08:06:19;33.10;72.20
25923;DHT22;13725;51.170;4.442;2022-09-02T08:08:45;33.30;71.70
25923;DHT22;13725;51.170;4.442;2022-09-02T08:11:12;33.40;72.00
25923;DHT22;13725;51.170;4.442;2022-09-02T08:13:39;32.40;72.30
25923;DHT22;13725;51.170;4.442;2022-09-02T08:16:05;31.60;73.90
25923;DHT22;13725;51.170;4.442;2022-09-02T08:18:31;32.50;73.60
25923;DHT22;13725;51.170;4.442;2022-09-02T08:20:57;33.00;72.70
25923;DHT22;13725;51.170;4.442;2022-09-02T08:23:24;33.50;71.40
25923;DHT22;13725;51.170;4.442;2022-09-02T08:25:50;33.60;70.10
25923;DHT22;13725;51.170;4.442;2022-09-02T08:28:15;34.30;69.80
25923;DHT22;13725;51.170;4.442;2022-09-02T08:30:41;33.40;69.80
25923;DHT22;13725;51.170;4.442;2022-09-02T08:33:07;31.60;72.20
25923;DHT22;13725;51.170;4.442;2022-09-02T08:35:33;30.50;75.40
25923;DHT22;13725;51.170;4.442;2022-09-02T08:38:02;30.30;75.90
25923;DHT22;13725;51.170;4.442;2022-09-02T08:40:38;29.50;77.20
25923;DHT22;13725;51.170;4.442;2022-09-02T08:43:25;28.70;78.80
25923;DHT22;13725;51.170;4.442;2022-09-02T08:45:52;27.80;80.80
25923;DHT22;13725;51.170;4.442;2022-09-02T08:51:07;28.90;80.30
25923;DHT22;13725;51.170;4.442;2022-09-02T08:56:05;32.30;75.80
25923;DHT22;13725;51.170;4.442;2022-09-02T08:58:41;32.10;73.50
25923;DHT22;13725;51.170;4.442;2022-09-02T09:12:14;34.70;69.40
25923;DHT22;13725;51.170;4.442;2022-09-02T09:17:54;36.10;67.00
25923;DHT22;13725;51.170;4.442;2022-09-02T09:20:36;34.70;68.20
25923;DHT22;13725;51.170;4.442;2022-09-02T09:23:17;34.30;68.40
25923;DHT22;13725;51.170;4.442;2022-09-02T09:25:47;34.20;68.60
25923;DHT22;13725;51.170;4.442;2022-09-02T09:28:13;34.00;69.10
25923;DHT22;13725;51.170;4.442;2022-09-02T09:30:39;34.50;68.40
25923;DHT22;13725;51.170;4.442;2022-09-02T09:33:15;35.30;67.40
25923;DHT22;13725;51.170;4.442;2022-09-02T09:38:13;36.50;67.60
25923;DHT22;13725;51.170;4.442;2022-09-02T09:40:39;37.80;64.40
25923;DHT22;13725;51.170;4.442;2022-09-02T09:45:39;37.10;64.00
25923;DHT22;13725;51.170;4.442;2022-09-02T09:50:46;39.00;61.30
25923;DHT22;13725;51.170;4.442;2022-09-02T09:53:26;39.00;60.70
25923;DHT22;13725;51.170;4.442;2022-09-02T09:58:29;38.70;60.00
25923;DHT22;13725;51.170;4.442;2022-09-02T10:00:57;39.90;59.30
25923;DHT22;13725;51.170;4.442;2022-09-02T10:03:29;40.30;58.20
25923;DHT22;13725;51.170;4.442;2022-09-02T10:05:57;40.50;57.20
25923;DHT22;13725;51.170;4.442;2022-09-02T10:08:26;39.30;58.30
25923;DHT22;13725;51.170;4.442;2022-09-02T10:13:24;39.70;58.20
25923;DHT22;13725;51.170;4.442;2022-09-02T10:18:39;37.10;59.90
25923;DHT22;13725;51.170;4.442;2022-09-02T10:26:48;35.90;61.90
25923;DHT22;13725;51.170;4.442;2022-09-02T10:37:19;36.40;62.00
25923;DHT22;13725;51.170;4.442;2022-09-02T10:42:45;37.70;58.80
25923;DHT22;13725;51.170;4.442;2022-09-02T10:45:28;39.10;58.20
25923;DHT22;13725;51.170;4.442;2022-09-02T10:48:01;38.00;57.40
25923;DHT22;13725;51.170;4.442;2022-09-02T10:50:48;38.20;57.50
25923;DHT22;13725;51.170;4.442;2022-09-02T10:56:01;37.30;58.00
25923;DHT22;13725;51.170;4.442;2022-09-02T11:01:34;37.80;56.90
25923;DHT22;13725;51.170;4.442;2022-09-02T11:06:46;41.20;54.10
25923;DHT22;13725;51.170;4.442;2022-09-02T11:09:45;41.70;51.70
25923;DHT22;13725;51.170;4.442;2022-09-02T11:12:21;40.00;53.40
25923;DHT22;13725;51.170;4.442;2022-09-02T11:17:37;37.60;54.90
25923;DHT22;13725;51.170;4.442;2022-09-02T11:25:42;37.30;55.90
25923;DHT22;13725;51.170;4.442;2022-09-02T11:28:27;37.70;55.50
25923;DHT22;13725;51.170;4.442;2022-09-02T11:31:18;38.30;55.40
25923;DHT22;13725;51.170;4.442;2022-09-02T11:36:20;36.00;56.40
25923;DHT22;13725;51.170;4.442;2022-09-02T11:38:53;35.80;56.90
25923;DHT22;13725;51.170;4.442;2022-09-02T11:47:20;34.30;59.40
25923;DHT22;13725;51.170;4.442;2022-09-02T11:50:16;34.50;58.60
25923;DHT22;13725;51.170;4.442;2022-09-02T11:57:57;34.20;58.10
25923;DHT22;13725;51.170;4.442;2022-09-02T12:00:33;34.60;56.80
25923;DHT22;13725;51.170;4.442;2022-09-02T12:08:01;35.20;56.20
25923;DHT22;13725;51.170;4.442;2022-09-02T12:21:33;35.00;54.80
25923;DHT22;13725;51.170;4.442;2022-09-02T12:31:52;36.10;53.80
25923;DHT22;13725;51.170;4.442;2022-09-02T12:36:50;36.00;54.00
25923;DHT22;13725;51.170;4.442;2022-09-02T12:44:31;36.80;54.50
25923;DHT22;13725;51.170;4.442;2022-09-02T12:52:43;35.50;54.00
25923;DHT22;13725;51.170;4.442;2022-09-02T12:55:24;36.20;53.30
25923;DHT22;13725;51.170;4.442;2022-09-02T12:57:54;37.70;54.00
25923;DHT22;13725;51.170;4.442;2022-09-02T13:11:24;34.80;55.40
25923;DHT22;13725;51.170;4.442;2022-09-02T13:19:58;36.60;52.60
25923;DHT22;13725;51.170;4.442;2022-09-02T13:25:39;35.50;52.80
25923;DHT22;13725;51.170;4.442;2022-09-02T13:33:40;36.20;52.40
25923;DHT22;13725;51.170;4.442;2022-09-02T13:36:07;37.00;53.70
25923;DHT22;13725;51.170;4.442;2022-09-02T13:38:33;38.30;51.80
25923;DHT22;13725;51.170;4.442;2022-09-02T13:41:00;38.50;50.30
25923;DHT22;13725;51.170;4.442;2022-09-02T13:43:27;38.00;50.30
25923;DHT22;13725;51.170;4.442;2022-09-02T13:46:00;38.70;50.90
25923;DHT22;13725;51.170;4.442;2022-09-02T13:48:29;39.70;48.70
25923;DHT22;13725;51.170;4.442;2022-09-02T13:50:58;40.20;49.80
25923;DHT22;13725;51.170;4.442;2022-09-02T13:53:38;41.20;49.40
25923;DHT22;13725;51.170;4.442;2022-09-02T13:56:07;39.90;48.10
25923;DHT22;13725;51.170;4.442;2022-09-02T13:58:53;38.30;48.80
25923;DHT22;13725;51.170;4.442;2022-09-02T14:01:30;37.00;50.40
25923;DHT22;13725;51.170;4.442;2022-09-02T14:04:00;36.40;50.70
25923;DHT22;13725;51.170;4.442;2022-09-02T14:06:36;37.00;50.00
25923;DHT22;13725;51.170;4.442;2022-09-02T14:09:10;37.00;50.40
25923;DHT22;13725;51.170;4.442;2022-09-02T14:11:43;35.80;50.90
25923;DHT22;13725;51.170;4.442;2022-09-02T14:14:15;34.20;52.20
25923;DHT22;13725;51.170;4.442;2022-09-02T14:16:41;33.40;53.10
25923;DHT22;13725;51.170;4.442;2022-09-02T14:21:52;33.00;53.90
25923;DHT22;13725;51.170;4.442;2022-09-02T14:24:36;32.60;55.20
25923;DHT22;13725;51.170;4.442;2022-09-02T14:27:09;31.90;56.00
25923;DHT22;13725;51.170;4.442;2022-09-02T14:29:43;31.50;55.40
25923;DHT22;13725;51.170;4.442;2022-09-02T14:32:27;31.00;55.50
25923;DHT22;13725;51.170;4.442;2022-09-02T14:35:21;30.50;56.40
25923;DHT22;13725;51.170;4.442;2022-09-02T14:37:54;30.10;57.00
25923;DHT22;13725;51.170;4.442;2022-09-02T14:40:40;29.80;57.40
25923;DHT22;13725;51.170;4.442;2022-09-02T14:43:14;29.80;58.40
25923;DHT22;13725;51.170;4.442;2022-09-02T14:45:48;29.80;58.00
25923;DHT22;13725;51.170;4.442;2022-09-02T14:48:22;29.90;58.20
25923;DHT22;13725;51.170;4.442;2022-09-02T14:50:49;29.90;57.20
25923;DHT22;13725;51.170;4.442;2022-09-02T14:53:22;29.80;58.40
25923;DHT22;13725;51.170;4.442;2022-09-02T14:55:53;29.60;58.10
25923;DHT22;13725;51.170;4.442;2022-09-02T14:58:23;29.50;57.70
25923;DHT22;13725;51.170;4.442;2022-09-02T15:00:51;29.40;57.60
25923;DHT22;13725;51.170;4.442;2022-09-02T15:03:19;29.30;57.40
25923;DHT22;13725;51.170;4.442;2022-09-02T15:05:45;29.40;58.90
25923;DHT22;13725;51.170;4.442;2022-09-02T15:08:12;29.60;59.90
25923;DHT22;13725;51.170;4.442;2022-09-02T15:10:38;29.60;59.60
25923;DHT22;13725;51.170;4.442;2022-09-02T15:13:07;29.60;59.10
25923;DHT22;13725;51.170;4.442;2022-09-02T15:15:37;29.40;60.60
25923;DHT22;13725;51.170;4.442;2022-09-02T15:18:04;29.30;60.10
25923;DHT22;13725;51.170;4.442;2022-09-02T15:20:31;29.20;59.60
25923;DHT22;13725;51.170;4.442;2022-09-02T15:22:56;29.00;60.50
25923;DHT22;13725;51.170;4.442;2022-09-02T15:25:22;28.90;59.60
25923;DHT22;13725;51.170;4.442;2022-09-02T15:27:48;28.90;60.50
25923;DHT22;13725;51.170;4.442;2022-09-02T15:30:14;28.80;60.70
25923;DHT22;13725;51.170;4.442;2022-09-02T15:32:40;28.80;61.00
25923;DHT22;13725;51.170;4.442;2022-09-02T15:35:07;28.70;60.90
25923;DHT22;13725;51.170;4.442;2022-09-02T15:37:34;28.60;60.70
25923;DHT22;13725;51.170;4.442;2022-09-02T15:40:03;28.50;61.20
25923;DHT22;13725;51.170;4.442;2022-09-02T15:42:35;28.50;61.10
25923;DHT22;13725;51.170;4.442;2022-09-02T15:45:02;28.50;61.20
25923;DHT22;13725;51.170;4.442;2022-09-02T15:47:29;28.40;62.30
25923;DHT22;13725;51.170;4.442;2022-09-02T15:49:55;28.40;61.60
25923;DHT22;13725;51.170;4.442;2022-09-02T15:52:24;28.30;61.90
25923;DHT22;13725;51.170;4.442;2022-09-02T15:54:52;28.30;62.40
25923;DHT22;13725;51.170;4.442;2022-09-02T15:57:18;28.30;61.70
25923;DHT22;13725;51.170;4.442;2022-09-02T15:59:44;28.30;62.40
25923;DHT22;13725;51.170;4.442;2022-09-02T16:02:09;28.30;62.00
25923;DHT22;13725;51.170;4.442;2022-09-02T16:04:35;28.30;62.00
25923;DHT22;13725;51.170;4.442;2022-09-02T16:07:01;28.20;61.20
25923;DHT22;13725;51.170;4.442;2022-09-02T16:09:27;28.00;62.50
25923;DHT22;13725;51.170;4.442;2022-09-02T16:11:54;28.00;62.60
25923;DHT22;13725;51.170;4.442;2022-09-02T16:14:23;28.00;63.00
25923;DHT22;13725;51.170;4.442;2022-09-02T16:16:50;28.00;62.60
25923;DHT22;13725;51.170;4.442;2022-09-02T16:19:19;28.00;62.40
25923;DHT22;13725;51.170;4.442;2022-09-02T16:21:49;28.00;62.70
25923;DHT22;13725;51.170;4.442;2022-09-02T16:24:15;27.90;62.80
25923;DHT22;13725;51.170;4.442;2022-09-02T16:26:43;27.80;62.90
25923;DHT22;13725;51.170;4.442;2022-09-02T16:29:11;27.80;63.50
25923;DHT22;13725;51.170;4.442;2022-09-02T16:31:46;27.70;63.70
25923;DHT22;13725;51.170;4.442;2022-09-02T16:34:14;27.70;63.80
25923;DHT22;13725;51.170;4.442;2022-09-02T16:36:42;27.60;64.40
25923;DHT22;13725;51.170;4.442;2022-09-02T16:39:09;27.50;64.20
25923;DHT22;13725;51.170;4.442;2022-09-02T16:41:39;27.40;64.60
25923;DHT22;13725;51.170;4.442;2022-09-02T16:44:09;27.30;64.20
25923;DHT22;13725;51.170;4.442;2022-09-02T16:46:36;27.20;64.70
25923;DHT22;13725;51.170;4.442;2022-09-02T16:49:07;27.20;64.60
25923;DHT22;13725;51.170;4.442;2022-09-02T16:51:33;27.10;65.40
25923;DHT22;13725;51.170;4.442;2022-09-02T16:54:01;27.00;64.50
25923;DHT22;13725;51.170;4.442;2022-09-02T16:56:28;27.10;64.80
25923;DHT22;13725;51.170;4.442;2022-09-02T16:58:55;27.10;65.70
25923;DHT22;13725;51.170;4.442;2022-09-02T17:01:21;27.00;65.10
25923;DHT22;13725;51.170;4.442;2022-09-02T17:03:48;27.00;66.00
25923;DHT22;13725;51.170;4.442;2022-09-02T17:06:14;26.90;65.70
25923;DHT22;13725;51.170;4.442;2022-09-02T17:08:41;26.80;66.00
25923;DHT22;13725;51.170;4.442;2022-09-02T17:11:30;26.60;66.40
25923;DHT22;13725;51.170;4.442;2022-09-02T17:13:58;26.60;66.70
25923;DHT22;13725;51.170;4.442;2022-09-02T17:16:27;26.50;66.80
25923;DHT22;13725;51.170;4.442;2022-09-02T17:18:53;26.50;66.80
25923;DHT22;13725;51.170;4.442;2022-09-02T17:23:51;26.50;67.00
25923;DHT22;13725;51.170;4.442;2022-09-02T17:26:18;26.40;66.80
25923;DHT22;13725;51.170;4.442;2022-09-02T17:28:44;26.30;67.20
25923;DHT22;13725;51.170;4.442;2022-09-02T17:31:24;26.30;67.50
25923;DHT22;13725;51.170;4.442;2022-09-02T17:33:54;26.20;67.40
25923;DHT22;13725;51.170;4.442;2022-09-02T17:36:21;26.10;67.30
25923;DHT22;13725;51.170;4.442;2022-09-02T17:38:47;26.00;67.40
25923;DHT22;13725;51.170;4.442;2022-09-02T17:41:13;26.00;67.90
25923;DHT22;13725;51.170;4.442;2022-09-02T17:43:58;25.90;67.70
25923;DHT22;13725;51.170;4.442;2022-09-02T17:46:24;25.90;67.90
25923;DHT22;13725;51.170;4.442;2022-09-02T17:48:51;25.80;68.20
25923;DHT22;13725;51.170;4.442;2022-09-02T17:51:17;25.70;68.60
25923;DHT22;13725;51.170;4.442;2022-09-02T17:53:44;25.60;68.60
25923;DHT22;13725;51.170;4.442;2022-09-02T17:56:33;25.60;68.90
25923;DHT22;13725;51.170;4.442;2022-09-02T18:13:04;25.10;69.90
25923;DHT22;13725;51.170;4.442;2022-09-02T18:15:39;25.00;70.20
25923;DHT22;13725;51.170;4.442;2022-09-02T18:18:06;25.00;70.50
25923;DHT22;13725;51.170;4.442;2022-09-02T18:20:40;24.90;70.20
25923;DHT22;13725;51.170;4.442;2022-09-02T18:38:08;24.50;71.30
25923;DHT22;13725;51.170;4.442;2022-09-02T18:41:20;24.50;71.80
25923;DHT22;13725;51.170;4.442;2022-09-02T18:43:54;24.40;71.80
25923;DHT22;13725;51.170;4.442;2022-09-02T18:46:25;24.40;71.80